Time;durP1;ratioP1;P1;durP2;ratioP2;P2;SDS_P1;SDS_P2;PMS_P1;PMS_P2;Temp;Humidity;BMP_temperature;BMP_pressure;BME280_temperature;BME280_humidity;BME280_pressure;Samples;Min_cycle;Max_cycle;Signal;HPM_P1;HPM_P2
2021/10/22 00:01:33;;;;;;;6.15;2.58;;;;;;;26.35;30.44;101544.13;4147664;28;20112;-72
2021/10/22 00:03:35;;;;;;;5.50;2.75;;;;;;;26.33;30.77;101546.09;4147674;28;20437;-72
2021/10/22 00:05:38;;;;;;;5.55;2.78;;;;;;;26.63;30.53;101591.88;4147908;28;20045;-72
2021/10/22 00:07:40;;;;;;;6.88;2.90;;;;;;;26.34;30.56;101548.66;4147569;28;20650;-71
2021/10/22 00:09:43;;;;;;;5.18;2.65;;;;;;;26.51;30.31;101574.09;4147659;28;20045;-72
2021/10/22 00:11:45;;;;;;;6.22;2.60;;;;;;;26.67;30.38;101603.25;4147449;28;20123;-71
2021/10/22 00:13:47;;;;;;;5.70;2.60;;;;;;;26.37;30.50;101558.31;4147515;28;20151;-70
2021/10/22 00:15:49;;;;;;;6.60;2.75;;;;;;;26.68;30.49;101604.13;4147511;28;20042;-71
2021/10/22 00:17:52;;;;;;;6.88;2.47;;;;;;;26.49;30.49;101572.53;4147237;28;20041;-70
2021/10/22 00:19:54;;;;;;;5.45;2.60;;;;;;;26.30;30.32;101542.69;4147574;28;20050;-70
2021/10/22 00:21:56;;;;;;;6.53;2.70;;;;;;;26.53;30.67;101576.69;4147435;28;20068;-71
2021/10/22 00:23:59;;;;;;;5.63;2.88;;;;;;;26.65;30.38;101599.84;4147377;28;20073;-71
2021/10/22 00:26:01;;;;;;;6.70;2.97;;;;;;;26.61;30.51;101599.28;4147439;28;20068;-71
2021/10/22 00:28:04;;;;;;;4.90;2.42;;;;;;;26.55;30.65;101582.78;4147082;28;20513;-70
2021/10/22 00:30:06;;;;;;;6.85;2.45;;;;;;;26.66;30.81;101606.09;4147219;28;20065;-71
2021/10/22 00:32:08;;;;;;;5.15;2.40;;;;;;;26.34;30.38;101556.75;4147254;28;20049;-71
2021/10/22 00:34:10;;;;;;;5.78;2.80;;;;;;;26.33;30.37;101557.72;4146082;28;20050;-72
2021/10/22 00:36:13;;;;;;;5.97;2.45;;;;;;;26.66;30.32;101606.09;4147204;28;20481;-71
2021/10/22 00:38:15;;;;;;;6.78;2.53;;;;;;;26.66;30.45;101608.78;4146851;28;20041;-67
2021/10/22 00:40:19;;;;;;;6.07;2.60;;;;;;;26.67;30.46;101602.41;4147122;28;20070;-68
2021/10/22 00:42:23;;;;;;;5.72;2.55;;;;;;;26.49;30.49;101576.09;4147098;28;20629;-73
2021/10/22 00:44:25;;;;;;;5.90;2.60;;;;;;;26.31;30.49;101548.94;4146560;28;20050;-70
2021/10/22 00:46:30;;;;;;;4.28;2.38;;;;;;;26.61;30.30;101599.28;4130857;28;20044;-70
2021/10/22 00:48:36;;;;;;;7.25;2.80;;;;;;;26.47;30.25;101584.31;4138085;28;20046;-71
2021/10/22 00:50:40;;;;;;;5.80;2.72;;;;;;;26.63;30.50;101616.16;4146739;28;20628;-61
2021/10/22 00:52:45;;;;;;;6.13;2.75;;;;;;;26.59;30.35;101605.81;4146985;28;20052;-70
2021/10/22 00:54:47;;;;;;;5.57;2.90;;;;;;;26.43;30.27;101574.81;4146634;28;20046;-72
2021/10/22 00:56:49;;;;;;;6.68;3.00;;;;;;;26.44;30.68;101578.34;4130547;28;20042;-72
2021/10/22 00:58:52;;;;;;;5.70;2.80;;;;;;;26.35;30.20;101558.44;4137666;28;20053;-69
2021/10/22 01:00:55;;;;;;;5.22;2.50;;;;;;;26.31;30.55;101555.16;4145623;28;20049;-66
2021/10/22 01:02:58;;;;;;;5.45;2.50;;;;;;;26.45;30.55;101572.84;4146780;28;20092;-71
2021/10/22 01:05:00;;;;;;;5.82;2.53;;;;;;;26.64;30.40;101608.94;4146484;28;20056;-71
2021/10/22 01:07:03;;;;;;;6.57;2.80;;;;;;;26.45;30.35;101586.31;4146712;28;20050;-72
2021/10/22 01:09:10;;;;;;;5.55;2.80;;;;;;;26.52;30.25;101600.09;4146356;28;20549;-67
2021/10/22 01:11:13;;;;;;;4.80;2.53;;;;;;;26.30;30.60;101564.25;4146614;28;20053;-71
2021/10/22 01:13:16;;;;;;;5.05;2.35;;;;;;;26.61;30.73;101615.47;4146709;28;20042;-71
2021/10/22 01:15:19;;;;;;;5.00;2.60;;;;;;;26.49;30.42;101594.13;4146248;28;20048;-70
2021/10/22 01:17:39;;;;;;;5.25;2.65;;;;;;;26.60;30.25;101607.50;4146350;28;20045;-70
2021/10/22 01:19:42;;;;;;;6.22;2.40;;;;;;;26.61;30.12;101612.75;4146244;28;20046;-70
2021/10/22 01:21:47;;;;;;;5.60;2.78;;;;;;;26.39;30.24;101584.16;4146509;28;20041;-71
2021/10/22 01:23:50;;;;;;;5.43;2.35;;;;;;;26.58;30.54;101612.19;4146475;28;20057;-72
2021/10/22 01:25:52;;;;;;;5.15;2.72;;;;;;;26.63;30.34;101623.41;4146154;28;20046;-72
2021/10/22 01:27:56;;;;;;;4.50;2.35;;;;;;;26.50;30.14;101602.06;4146367;28;20456;-66
2021/10/22 01:29:58;;;;;;;5.55;2.53;;;;;;;26.39;30.33;101586.00;4146067;28;20046;-72
2021/10/22 01:32:00;;;;;;;5.82;2.58;;;;;;;26.41;30.40;101587.56;4146342;28;20046;-69
2021/10/22 01:34:02;;;;;;;6.10;2.75;;;;;;;26.38;30.57;101585.16;4146348;28;20696;-72
2021/10/22 01:36:05;;;;;;;6.13;2.55;;;;;;;26.26;30.30;101565.53;4146076;28;20042;-71
2021/10/22 01:38:07;;;;;;;5.82;2.95;;;;;;;26.40;30.40;101588.56;4146250;28;20049;-72
2021/10/22 01:40:10;;;;;;;4.80;2.30;;;;;;;26.45;30.37;101605.19;4145937;28;20042;-66
2021/10/22 01:42:15;;;;;;;6.97;2.42;;;;;;;26.46;30.25;101606.03;4146152;28;20053;-70
2021/10/22 01:44:23;;;;;;;5.20;2.13;;;;;;;26.50;30.22;101614.72;4146236;28;20069;-67
2021/10/22 01:46:25;;;;;;;4.53;2.28;;;;;;;26.30;30.58;101577.72;4146016;28;20042;-67
2021/10/22 01:48:27;;;;;;;5.00;2.42;;;;;;;26.55;30.24;101625.94;4146086;28;20493;-63
2021/10/22 01:50:31;;;;;;;5.53;2.30;;;;;;;26.60;30.18;101632.63;4145908;28;20056;-71
2021/10/22 01:52:33;;;;;;;4.68;2.30;;;;;;;26.32;30.41;101585.72;4146232;28;20053;-64
2021/10/22 01:54:35;;;;;;;5.82;2.60;;;;;;;26.40;30.47;101610.13;4146212;28;20046;-64
2021/10/22 01:56:37;;;;;;;7.10;2.22;;;;;;;26.24;30.36;101580.13;4145765;28;20041;-61
2021/10/22 01:58:39;;;;;;;4.85;2.42;;;;;;;26.24;30.39;101580.97;4144494;28;20131;-70
2021/10/22 02:00:43;;;;;;;4.68;2.13;;;;;;;26.57;30.04;101632.06;4135062;28;20037;-63
2021/10/22 02:02:45;;;;;;;4.72;2.10;;;;;;;26.57;30.16;101632.06;4145364;28;20042;-62
2021/10/22 02:04:47;;;;;;;4.22;2.30;;;;;;;26.38;30.29;101595.94;4145980;28;20052;-65
2021/10/22 02:06:50;;;;;;;5.05;2.25;;;;;;;26.33;30.38;101598.19;4145602;28;20042;-71
2021/10/22 02:08:52;;;;;;;4.45;2.13;;;;;;;26.53;30.24;101626.06;4146148;28;20540;-62
2021/10/22 02:10:54;;;;;;;5.35;2.10;;;;;;;26.58;30.07;101631.06;4145756;28;20048;-72
2021/10/22 02:12:57;;;;;;;4.97;2.30;;;;;;;26.24;30.39;101570.19;4145786;28;20605;-72
2021/10/22 02:14:59;;;;;;;4.22;2.08;;;;;;;26.57;30.16;101627.50;4145889;28;20056;-61
2021/10/22 02:17:02;;;;;;;4.45;2.05;;;;;;;26.21;30.37;101565.09;4145548;28;20041;-70
2021/10/22 02:19:04;;;;;;;5.07;2.20;;;;;;;26.46;30.55;101606.03;4145794;28;20050;-63
2021/10/22 02:21:06;;;;;;;4.30;1.92;;;;;;;26.38;30.26;101604.03;4144419;28;20061;-71
2021/10/22 02:23:09;;;;;;;4.93;2.15;;;;;;;26.22;30.27;101577.59;4143923;28;20034;-67
2021/10/22 02:25:11;;;;;;;4.72;2.22;;;;;;;26.41;30.19;101595.66;4145801;28;20049;-71
2021/10/22 02:27:13;;;;;;;5.25;2.30;;;;;;;26.23;30.05;101570.34;4145498;28;20042;-64
2021/10/22 02:29:16;;;;;;;4.82;2.13;;;;;;;26.43;30.40;101606.31;4144454;28;20050;-66
2021/10/22 02:31:19;;;;;;;4.15;2.03;;;;;;;26.56;30.14;101619.56;4131452;28;20046;-72
2021/10/22 02:33:22;;;;;;;3.88;1.90;;;;;;;26.33;30.29;101579.28;4145833;28;20050;-62
2021/10/22 02:35:24;;;;;;;3.85;2.00;;;;;;;26.29;30.34;101570.63;4145761;28;20060;-63
2021/10/22 02:37:26;;;;;;;4.88;2.17;;;;;;;26.27;30.16;101569.06;4145345;28;20050;-65
2021/10/22 02:39:33;;;;;;;4.60;2.03;;;;;;;26.13;30.07;101548.75;4145761;28;20042;-72
2021/10/22 02:41:35;;;;;;;4.00;2.05;;;;;;;26.30;30.22;101579.59;4145531;28;20046;-63
2021/10/22 02:43:37;;;;;;;4.72;1.90;;;;;;;26.49;30.36;101608.47;4141825;28;20060;-66
2021/10/22 02:45:39;;;;;;;5.68;2.10;;;;;;;26.20;29.99;101571.47;4145542;28;20050;-73
2021/10/22 02:47:42;;;;;;;4.82;2.20;;;;;;;26.46;30.05;101617.66;4145231;28;20152;-63
2021/10/22 02:49:44;;;;;;;4.32;2.30;;;;;;;26.29;30.07;101588.66;4145619;28;20057;-72
2021/10/22 02:51:47;;;;;;;4.80;2.13;;;;;;;26.20;30.05;101579.56;4145486;28;20666;-71
2021/10/22 02:53:49;;;;;;;4.65;1.90;;;;;;;26.45;30.23;101620.50;4140645;28;20465;-65
2021/10/22 02:55:51;;;;;;;4.32;1.90;;;;;;;26.46;30.28;101623.06;4145647;28;20050;-65
2021/10/22 02:57:53;;;;;;;4.40;2.05;;;;;;;26.55;30.02;101639.44;4145130;28;20068;-71
2021/10/22 02:59:56;;;;;;;4.93;2.10;;;;;;;26.37;30.18;101607.72;4145427;28;20188;-69
2021/10/22 03:01:58;;;;;;;4.43;2.30;;;;;;;26.36;30.24;101614.09;4145446;28;20049;-68
2021/10/22 03:04:01;;;;;;;4.15;2.10;;;;;;;26.25;29.89;101598.03;4145237;28;20057;-72
2021/10/22 03:06:03;;;;;;;5.05;1.75;;;;;;;26.30;30.05;101604.69;4145252;28;20046;-73
2021/10/22 03:08:05;;;;;;;5.95;1.90;;;;;;;26.52;30.19;101639.72;4145025;28;20482;-68
2021/10/22 03:10:09;;;;;;;5.15;2.30;;;;;;;26.27;30.13;101598.72;4145341;28;20461;-72
2021/10/22 03:12:11;;;;;;;4.53;2.10;;;;;;;26.39;29.89;101621.94;4145442;28;20069;-62
2021/10/22 03:14:13;;;;;;;4.32;1.98;;;;;;;26.36;30.02;101613.25;4146863;28;20061;-73
2021/10/22 03:16:15;;;;;;;5.72;2.33;;;;;;;26.33;29.91;101598.19;4148354;28;20054;-68
2021/10/22 03:18:17;;;;;;;3.90;2.00;;;;;;;26.38;30.23;101609.44;4146737;28;20545;-73
2021/10/22 03:20:19;;;;;;;4.35;2.00;;;;;;;26.36;29.97;101614.09;4148337;28;20049;-69
2021/10/22 03:22:21;;;;;;;4.88;2.22;;;;;;;26.40;30.27;101611.97;4148567;28;20046;-67
2021/10/22 03:24:24;;;;;;;4.88;2.30;;;;;;;26.24;30.21;101597.16;4147917;28;20042;-65
2021/10/22 03:26:26;;;;;;;4.88;2.17;;;;;;;26.16;30.18;101578.09;4148181;28;20060;-68
2021/10/22 03:28:28;;;;;;;4.20;1.90;;;;;;;26.50;29.92;101645.22;4148057;28;20045;-67
2021/10/22 03:30:33;;;;;;;5.35;2.20;;;;;;;26.46;29.84;101635.72;4148018;28;20096;-67
2021/10/22 03:32:35;;;;;;;5.72;2.22;;;;;;;26.40;30.13;101630.88;4148171;28;20619;-71
2021/10/22 03:34:37;;;;;;;4.05;2.05;;;;;;;26.41;30.23;101627.19;4147767;28;20502;-61
2021/10/22 03:36:40;;;;;;;4.40;1.98;;;;;;;26.15;30.09;101585.34;4148040;28;20100;-68
2021/10/22 03:38:43;;;;;;;5.80;2.22;;;;;;;26.48;29.85;101644.53;4147835;28;20046;-73
2021/10/22 03:40:45;;;;;;;4.78;2.15;;;;;;;26.18;30.18;101588.78;4147981;28;20042;-72
2021/10/22 03:42:48;;;;;;;4.72;1.98;;;;;;;26.50;30.31;101653.31;4147996;28;20065;-73
2021/10/22 03:44:50;;;;;;;4.40;2.13;;;;;;;26.11;30.11;101585.75;4147697;28;20061;-64
2021/10/22 03:46:53;;;;;;;4.15;1.98;;;;;;;26.18;30.23;101600.41;4147728;28;20046;-72
2021/10/22 03:48:55;;;;;;;4.35;2.03;;;;;;;26.27;29.88;101613.09;4147733;28;20076;-73
2021/10/22 03:50:58;;;;;;;3.58;2.00;;;;;;;26.15;29.98;101581.81;4147667;28;20046;-66
2021/10/22 03:53:00;;;;;;;4.65;1.98;;;;;;;26.24;30.11;101605.25;4148139;28;20375;-72
2021/10/22 03:55:03;;;;;;;4.47;2.13;;;;;;;26.29;30.05;101612.94;4147562;28;20045;-69
2021/10/22 03:57:05;;;;;;;4.07;2.00;;;;;;;26.14;30.07;101594.44;4147779;28;20056;-72
2021/10/22 03:59:07;;;;;;;4.72;2.13;;;;;;;26.28;30.19;101617.50;4147557;28;20088;-70
2021/10/22 04:01:09;;;;;;;4.65;2.00;;;;;;;26.17;30.21;101597.84;4147609;28;20584;-72
2021/10/22 04:03:14;;;;;;;5.03;2.40;;;;;;;26.35;30.27;101625.88;4147837;28;20073;-70
2021/10/22 04:05:16;;;;;;;6.00;2.50;;;;;;;26.33;30.15;101618.91;4146278;28;20112;-74
2021/10/22 04:07:18;;;;;;;4.65;2.05;;;;;;;26.22;30.05;101606.38;4147769;28;20038;-71
2021/10/22 04:09:20;;;;;;;4.45;2.17;;;;;;;26.29;30.09;101612.94;4147724;28;20049;-66
2021/10/22 04:11:23;;;;;;;6.13;2.17;;;;;;;26.40;30.05;101641.66;4147533;28;20049;-73
2021/10/22 04:13:25;;;;;;;7.25;2.30;;;;;;;26.42;30.04;101640.53;4147766;28;20045;-74
2021/10/22 04:15:28;;;;;;;4.50;2.15;;;;;;;26.23;29.84;101606.22;4147317;28;20046;-69
2021/10/22 04:17:30;;;;;;;4.25;2.00;;;;;;;26.36;29.99;101627.59;4147333;28;20041;-69
2021/10/22 04:19:33;;;;;;;5.45;2.13;;;;;;;26.37;29.95;101633.81;4147480;28;20046;-60
2021/10/22 04:21:35;;;;;;;4.22;1.90;;;;;;;26.27;30.11;101618.47;4147163;28;20053;-61
2021/10/22 04:23:37;;;;;;;3.65;1.80;;;;;;;26.15;29.95;101601.53;4147386;28;20049;-66
2021/10/22 04:25:40;;;;;;;5.43;2.22;;;;;;;26.27;30.13;101617.59;4146513;28;20045;-72
2021/10/22 04:27:42;;;;;;;4.35;1.92;;;;;;;26.38;29.98;101633.72;4147239;28;20041;-72
2021/10/22 04:29:44;;;;;;;5.15;2.38;;;;;;;26.47;29.88;101645.50;4147399;28;20453;-73
2021/10/22 04:31:46;;;;;;;4.18;1.98;;;;;;;26.47;30.11;101651.75;4147004;28;20057;-69
2021/10/22 04:33:49;;;;;;;5.68;2.30;;;;;;;26.19;30.06;101609.38;4147104;28;20116;-71
2021/10/22 04:35:51;;;;;;;5.18;2.30;;;;;;;26.10;30.08;101595.69;4146990;28;20555;-70
2021/10/22 04:42:21;;;;;;;;;;;;;;;26.37;29.81;101661.66;4147226;28;20050;-68
2021/10/22 04:44:25;;;;;;;;;;;;;;;26.32;29.82;101661.22;4131335;28;20361;-72
2021/10/22 04:46:28;;;;;;;4.88;1.92;;;;;;;26.26;30.05;101657.22;4137939;28;20422;-73
2021/10/22 04:48:30;;;;;;;5.93;2.28;;;;;;;26.04;30.13;101622.28;4146770;28;20104;-68
2021/10/22 04:50:34;;;;;;;3.83;1.80;;;;;;;26.25;29.61;101651.97;4147021;28;20053;-65
2021/10/22 04:52:37;;;;;;;4.35;2.00;;;;;;;26.08;29.69;101627.31;4146562;28;20042;-65
2021/10/22 04:54:39;;;;;;;4.70;2.08;;;;;;;26.10;29.88;101628.06;4146695;28;20114;-62
2021/10/22 04:56:41;;;;;;;3.67;1.80;;;;;;;26.17;29.85;101636.44;4146573;28;20049;-73
2021/10/22 04:58:47;;;;;;;5.00;1.75;;;;;;;26.35;29.93;101671.72;4146547;28;20062;-72
2021/10/22 05:00:49;;;;;;;3.92;1.77;;;;;;;26.27;29.73;101667.00;4146829;28;20045;-67
2021/10/22 05:02:52;;;;;;;4.78;2.03;;;;;;;26.03;29.57;101628.66;4146684;28;20045;-73
2021/10/22 05:04:55;;;;;;;4.38;2.00;;;;;;;26.10;29.68;101651.44;4146556;28;20057;-72
2021/10/22 05:06:57;;;;;;;5.43;2.13;;;;;;;26.04;30.08;101630.38;4146437;28;20053;-62
2021/10/22 05:08:59;;;;;;;4.32;1.80;;;;;;;26.06;30.00;101648.13;4146540;28;20038;-73
2021/10/22 05:11:02;;;;;;;6.32;2.03;;;;;;;26.26;30.09;101677.91;4146761;28;20046;-73
2021/10/22 05:13:04;;;;;;;4.15;2.00;;;;;;;26.06;29.80;101640.03;4146566;28;20064;-73
2021/10/22 05:15:08;;;;;;;6.30;2.20;;;;;;;26.18;29.57;101662.41;4146692;28;20042;-63
2021/10/22 05:17:10;;;;;;;4.68;2.22;;;;;;;26.39;29.61;101693.88;4146338;28;20492;-71
2021/10/22 05:19:12;;;;;;;5.20;2.25;;;;;;;26.39;29.76;101693.88;4146410;28;20053;-74
2021/10/22 05:21:14;;;;;;;5.50;2.40;;;;;;;26.34;29.70;101683.50;4146543;28;20042;-69
2021/10/22 05:23:16;;;;;;;5.43;2.40;;;;;;;26.07;29.92;101636.38;4146160;28;20449;-74
2021/10/22 05:25:19;;;;;;;6.22;2.47;;;;;;;26.23;29.91;101672.81;4146327;28;20046;-73
2021/10/22 05:27:21;;;;;;;4.70;2.30;;;;;;;26.21;29.69;101666.69;4146285;28;20093;-72
2021/10/22 05:29:23;;;;;;;5.45;2.30;;;;;;;26.09;29.97;101645.22;4146189;28;20409;-66
2021/10/22 05:31:25;;;;;;;5.82;2.40;;;;;;;26.14;29.65;101655.59;4146452;28;20144;-71
2021/10/22 05:33:28;;;;;;;5.00;2.03;;;;;;;26.30;29.85;101677.50;4145980;28;20045;-61
2021/10/22 05:35:30;;;;;;;5.57;2.13;;;;;;;26.32;29.73;101677.41;4146078;28;20057;-73
2021/10/22 05:37:32;;;;;;;5.78;2.20;;;;;;;26.22;29.74;101663.88;4145228;28;20505;-73
2021/10/22 05:39:34;;;;;;;4.80;2.20;;;;;;;26.03;29.64;101640.31;4146027;28;20046;-61
2021/10/22 05:41:41;;;;;;;5.03;1.85;;;;;;;26.09;29.41;101650.59;4146289;28;20643;-73
2021/10/22 05:43:44;;;;;;;5.18;2.00;;;;;;;26.02;29.87;101635.91;4145844;28;20042;-71
2021/10/22 05:45:46;;;;;;;5.68;2.00;;;;;;;26.01;29.97;101642.28;4146005;28;20049;-65
2021/10/22 05:47:48;;;;;;;6.35;1.83;;;;;;;26.31;29.61;101692.72;4145967;28;20038;-73
2021/10/22 05:49:50;;;;;;;4.95;2.00;;;;;;;26.12;29.74;101660.25;4142452;28;20057;-73
2021/10/22 05:51:54;;;;;;;4.35;1.90;;;;;;;26.34;29.80;101696.97;4146070;28;20045;-74
2021/10/22 05:53:56;;;;;;;5.90;2.10;;;;;;;26.17;29.77;101659.88;4145774;28;20045;-72
2021/10/22 05:55:58;;;;;;;5.45;2.10;;;;;;;26.34;29.55;101696.13;4146161;28;20041;-72
2021/10/22 05:58:00;;;;;;;3.70;1.83;;;;;;;26.34;29.68;101693.44;4145854;28;20054;-72
2021/10/22 06:00:04;;;;;;;4.82;1.98;;;;;;;25.98;30.02;101643.41;4144860;28;20052;-67
2021/10/22 06:02:06;;;;;;;5.85;2.15;;;;;;;26.03;29.94;101655.63;4146111;28;20053;-71
2021/10/22 06:04:09;;;;;;;4.82;1.60;;;;;;;26.26;29.85;101694.09;4145801;28;20054;-68
2021/10/22 06:06:12;;;;;;;6.30;2.08;;;;;;;26.27;29.54;101696.69;4145953;28;20046;-72
2021/10/22 06:08:18;;;;;;;4.68;1.80;;;;;;;25.99;29.60;101655.91;4146016;28;20560;-65
2021/10/22 06:10:21;;;;;;;4.22;1.55;;;;;;;26.06;29.67;101668.84;4145689;28;20513;-73
2021/10/22 06:12:24;;;;;;;3.92;1.67;;;;;;;26.21;29.55;101699.03;4145943;28;20429;-64
2021/10/22 06:14:26;;;;;;;5.05;2.03;;;;;;;26.32;29.80;101707.06;4145801;28;20053;-72
2021/10/22 06:16:28;;;;;;;4.55;1.70;;;;;;;26.27;29.67;101699.38;4145886;28;20056;-68
2021/10/22 06:18:31;;;;;;;3.88;1.50;;;;;;;25.95;29.43;101654.44;4145914;28;20417;-62
2021/10/22 06:25:13;;;;;;;5.45;1.60;;;;;;;26.00;29.59;101662.13;4140780;28;20387;-73
2021/10/22 06:27:15;;;;;;;3.92;1.65;;;;;;;26.11;29.87;101672.91;4145817;28;20053;-73
2021/10/22 06:29:18;;;;;;;4.10;1.45;;;;;;;26.28;29.72;101703.78;4145730;28;20049;-71
2021/10/22 06:31:22;;;;;;;5.07;1.80;;;;;;;26.01;29.36;101666.53;4145708;28;20053;-66
2021/10/22 06:33:24;;;;;;;4.72;1.63;;;;;;;26.27;29.59;101710.16;4145712;28;20518;-74
2021/10/22 06:35:26;;;;;;;5.13;1.90;;;;;;;26.26;29.65;101705.75;4145445;28;20046;-63
2021/10/22 06:37:28;;;;;;;3.58;1.50;;;;;;;26.15;29.79;101695.06;4145715;28;20065;-71
2021/10/22 06:39:31;;;;;;;4.57;1.63;;;;;;;25.99;29.79;101684.69;4145671;28;20482;-68
2021/10/22 06:41:38;;;;;;;3.95;1.48;;;;;;;26.30;29.71;101736.84;4142611;28;20421;-73
2021/10/22 06:43:41;;;;;;;4.07;1.70;;;;;;;26.30;29.67;101744.94;4145764;28;20065;-70
2021/10/22 06:45:43;;;;;;;3.13;1.58;;;;;;;26.14;29.59;101723.84;4145438;28;20069;-74
2021/10/22 06:47:47;;;;;;;4.57;1.67;;;;;;;25.96;29.50;101690.34;4145568;28;20042;-65
2021/10/22 06:49:49;;;;;;;3.80;1.58;;;;;;;26.32;29.75;101752.91;4148876;28;20044;-61
2021/10/22 06:51:52;;;;;;;4.13;1.52;;;;;;;26.15;29.38;101730.94;4148717;28;20049;-61
2021/10/22 06:53:54;;;;;;;3.63;1.45;;;;;;;26.04;29.42;101708.56;4148981;28;20050;-62
2021/10/22 06:55:57;;;;;;;3.30;1.42;;;;;;;26.28;29.60;101757.72;4148719;28;20513;-74
2021/10/22 06:57:59;;;;;;;4.80;1.70;;;;;;;26.13;29.35;101732.91;4148627;28;20065;-71
2021/10/22 07:00:03;;;;;;;3.88;1.50;;;;;;;26.19;29.65;101750.41;4163852;28;20049;-67
2021/10/22 07:02:05;;;;;;;4.85;1.38;;;;;;;26.11;29.31;101737.59;4147457;28;20115;-69
2021/10/22 07:04:10;;;;;;;4.63;1.58;;;;;;;25.97;29.56;101717.16;4149058;28;20042;-72
2021/10/22 07:08:33;;;;;;;3.80;1.48;;;;;;;26.07;29.42;101736.13;4148603;28;20049;-74
2021/10/22 07:10:36;;;;;;;4.20;1.63;;;;;;;26.15;29.66;101748.97;4148487;28;20096;-63
2021/10/22 07:12:38;;;;;;;4.88;1.65;;;;;;;26.18;29.72;101750.56;4163552;28;20056;-74
2021/10/22 07:14:49;;;;;;;4.93;1.33;;;;;;;26.23;29.57;101759.09;4148563;28;20046;-67
2021/10/22 07:16:51;;;;;;;3.55;1.40;;;;;;;26.31;29.45;101770.09;4148198;28;20464;-72
2021/10/22 07:18:53;;;;;;;4.65;1.38;;;;;;;26.05;29.56;101732.69;4148430;28;20529;-72
2021/10/22 07:20:56;;;;;;;4.47;1.35;;;;;;;26.03;29.42;101729.28;4148351;28;20052;-73
2021/10/22 07:23:17;;;;;;;3.85;1.45;;;;;;;26.23;29.53;101759.09;4148393;28;20042;-65
2021/10/22 07:25:21;;;;;;;4.37;1.40;;;;;;;26.21;29.33;101763.75;4148493;28;20046;-62
2021/10/22 07:27:24;;;;;;;4.35;1.20;;;;;;;26.24;29.45;101769.75;4147983;28;20048;-62
2021/10/22 07:29:27;;;;;;;5.00;1.40;;;;;;;26.06;29.29;101745.19;4148017;28;20046;-65
2021/10/22 07:31:30;;;;;;;3.83;1.45;;;;;;;26.26;29.67;101769.59;4147847;28;20049;-62
2021/10/22 07:33:32;;;;;;;6.60;1.70;;;;;;;25.96;29.62;101720.84;4147892;28;20038;-68
2021/10/22 07:35:37;;;;;;;4.82;1.48;;;;;;;26.23;29.44;101765.31;4148021;28;20042;-69
2021/10/22 07:37:40;;;;;;;4.78;1.42;;;;;;;26.30;29.31;101776.44;4147431;28;20053;-70
2021/10/22 07:39:43;;;;;;;5.43;1.60;;;;;;;26.29;29.79;101769.34;4147735;28;20100;-67
2021/10/22 07:41:46;;;;;;;4.80;1.70;;;;;;;26.23;29.51;101754.53;4146632;28;20105;-66
2021/10/22 07:43:48;;;;;;;4.55;1.63;;;;;;;26.19;29.61;101749.56;4147833;28;20269;-70
2021/10/22 07:45:51;;;;;;;5.57;1.80;;;;;;;26.20;28.76;101762.03;4148055;28;20101;-64
2021/10/22 07:47:53;;;;;;;7.22;2.17;;;;;;;26.19;28.66;101776.53;4147620;28;20041;-65
2021/10/22 07:49:56;;;;;;;7.30;2.22;;;;;;;25.85;28.18;101745.19;4148232;28;20202;-73
2021/10/22 07:51:59;;;;;;;7.47;2.75;;;;;;;25.84;27.89;101767.72;4147629;28;20056;-74
2021/10/22 07:54:01;;;;;;;8.20;2.50;;;;;;;25.77;27.93;101770.09;4147581;28;20266;-64
2021/10/22 07:56:05;;;;;;;7.38;2.70;;;;;;;25.63;27.53;101760.44;4145120;28;20424;-72
2021/10/22 07:58:07;;;;;;;8.20;3.08;;;;;;;25.45;27.68;101752.06;4147771;28;20046;-71
2021/10/22 08:00:10;;;;;;;7.15;2.33;;;;;;;25.43;27.48;101763.94;4147468;28;20065;-70
2021/10/22 08:02:14;;;;;;;8.43;2.63;;;;;;;25.23;27.42;101744.88;4147735;28;20042;-69
2021/10/22 08:04:17;;;;;;;10.43;2.90;;;;;;;25.55;27.71;101814.09;4148959;28;20042;-70
2021/10/22 08:06:19;;;;;;;9.75;2.47;;;;;;;25.47;27.70;101808.47;4144855;28;20105;-71
2021/10/22 08:08:21;;;;;;;8.25;2.53;;;;;;;25.20;27.59;101780.97;4141335;28;20041;-71
2021/10/22 08:10:23;;;;;;;8.05;2.65;;;;;;;25.22;27.74;101793.47;4146124;28;20045;-72
2021/10/22 08:12:28;;;;;;;8.55;2.67;;;;;;;25.26;27.86;101802.97;4146110;28;20058;-72
2021/10/22 08:14:30;;;;;;;6.97;2.30;;;;;;;25.03;28.04;101768.00;4144816;28;20426;-72
2021/10/22 08:16:47;;;;;;;8.25;2.20;;;;;;;25.01;28.02;101769.97;4146219;28;20050;-68
2021/10/22 08:18:49;;;;;;;6.80;2.00;;;;;;;25.33;28.03;101825.75;4145753;28;20176;-72
2021/10/22 08:20:58;;;;;;;7.80;1.90;;;;;;;25.33;27.90;101831.13;4146033;28;20072;-69
2021/10/22 08:23:01;;;;;;;7.10;2.00;;;;;;;25.01;27.83;101781.59;4145636;28;20046;-62
2021/10/22 08:25:03;;;;;;;7.65;1.90;;;;;;;25.33;28.10;101841.91;4145987;28;20449;-73
2021/10/22 08:27:06;;;;;;;7.78;1.92;;;;;;;25.24;28.13;101838.13;4146155;28;20041;-71
2021/10/22 08:29:10;;;;;;;6.63;1.80;;;;;;;25.23;28.13;101832.88;4145702;28;20042;-73
2021/10/22 08:31:13;;;;;;;5.40;1.52;;;;;;;25.22;28.18;101833.84;4146094;28;20390;-70
2021/10/22 08:33:15;;;;;;;5.63;1.60;;;;;;;25.19;28.41;101848.41;4146185;28;20600;-72
2021/10/22 08:35:19;;;;;;;7.15;1.63;;;;;;;24.94;28.14;101809.97;4147092;28;20113;-71
2021/10/22 08:37:22;;;;;;;6.00;1.65;;;;;;;25.04;28.46;101826.25;4147330;28;20116;-74
2021/10/22 08:39:24;;;;;;;6.68;2.00;;;;;;;25.05;28.23;101833.34;4146904;28;20049;-71
2021/10/22 08:41:27;;;;;;;6.55;1.90;;;;;;;25.06;28.48;101842.28;4147250;28;20068;-63
2021/10/22 08:43:29;;;;;;;5.10;1.67;;;;;;;25.08;28.58;101845.69;4147318;28;20438;-73
2021/10/22 08:45:33;;;;;;;5.93;1.40;;;;;;;24.86;28.12;101807.03;4146037;28;20076;-72
2021/10/22 08:47:36;;;;;;;4.68;1.52;;;;;;;25.20;28.21;101861.75;4146112;28;20445;-70
2021/10/22 08:49:38;;;;;;;5.88;2.03;;;;;;;24.86;28.23;101798.97;4146799;28;20046;-73
2021/10/22 08:51:42;;;;;;;4.45;1.42;;;;;;;25.05;28.23;101833.34;4147085;28;20050;-71
2021/10/22 08:53:48;;;;;;;4.70;1.33;;;;;;;25.03;28.33;101833.47;4147129;28;20111;-71
2021/10/22 08:55:50;;;;;;;7.13;1.67;;;;;;;24.86;28.16;101805.22;4146560;28;20633;-65
2021/10/22 08:57:52;;;;;;;6.20;1.70;;;;;;;25.00;28.17;101832.88;4146986;28;20058;-73
2021/10/22 08:59:58;;;;;;;4.38;1.30;;;;;;;25.13;28.28;101857.81;4146662;28;20042;-72
2021/10/22 09:02:14;;;;;;;5.88;1.52;;;;;;;25.17;28.29;101864.66;4146969;28;20122;-69
2021/10/22 09:04:37;;;;;;;5.85;1.52;;;;;;;24.84;28.30;101815.22;4146850;28;20052;-72
2021/10/22 09:06:52;;;;;;;6.10;1.73;;;;;;;24.96;28.58;101832.25;4145448;28;20052;-61
2021/10/22 09:08:57;;;;;;;6.28;1.73;;;;;;;24.84;28.54;101823.31;4146770;28;20414;-66
2021/10/22 09:11:02;;;;;;;6.18;1.73;;;;;;;24.78;28.16;101812.19;4146457;28;20050;-72
2021/10/22 09:13:08;;;;;;;4.82;1.60;;;;;;;24.97;28.21;101844.72;4146744;28;20433;-73
2021/10/22 09:15:12;;;;;;;4.72;1.40;;;;;;;25.01;28.66;101854.25;4146539;28;20046;-70
2021/10/22 09:17:18;;;;;;;6.95;1.60;;;;;;;24.76;28.21;101812.28;4161237;28;20180;-66
2021/10/22 09:19:35;;;;;;;6.32;1.67;;;;;;;25.11;28.38;101864.31;4146819;28;20631;-70
2021/10/22 09:21:38;;;;;;;4.70;1.58;;;;;;;25.12;28.47;101888.41;4146327;28;20046;-68
2021/10/22 09:23:41;;;;;;;4.38;1.33;;;;;;;25.14;28.50;101899.03;4146487;28;20405;-70
2021/10/22 09:25:43;;;;;;;4.70;1.50;;;;;;;24.97;28.66;101870.75;4146215;28;20505;-72
2021/10/22 09:27:47;;;;;;;6.47;1.73;;;;;;;25.13;28.67;101902.72;4146354;28;20045;-72
2021/10/22 09:29:50;;;;;;;5.20;1.50;;;;;;;25.12;28.65;101896.47;4146584;28;20497;-71
2021/10/22 09:31:54;;;;;;;4.63;1.40;;;;;;;24.79;28.61;101844.34;4146303;28;20053;-71
2021/10/22 09:34:02;;;;;;;5.53;1.50;;;;;;;24.86;28.67;101860.84;4146302;28;20046;-72
2021/10/22 09:36:04;;;;;;;6.43;1.73;;;;;;;24.81;28.74;101853.16;4146066;28;20068;-71
2021/10/22 09:38:17;;;;;;;6.20;1.60;;;;;;;25.09;28.72;101888.63;4146396;28;20104;-72
2021/10/22 09:40:29;;;;;;;4.45;1.27;;;;;;;25.18;28.93;101897.84;4146395;28;20045;-71
2021/10/22 09:42:32;;;;;;;6.07;1.38;;;;;;;24.82;28.67;101845.94;4145690;28;20049;-72
2021/10/22 09:44:41;;;;;;;4.10;1.40;;;;;;;25.17;29.04;101910.44;4161400;28;20041;-72
2021/10/22 09:46:43;;;;;;;6.47;1.40;;;;;;;25.12;29.08;101898.34;4146053;28;20509;-73